Time;durP1;ratioP1;P1;durP2;ratioP2;P2;SDS_P1;SDS_P2;PMS_P1;PMS_P2;Temp;Humidity;BMP_temperature;BMP_pressure;BME280_temperature;BME280_humidity;BME280_pressure;Samples;Min_cycle;Max_cycle;Signal;HPM_P1;HPM_P2
2024/02/04 00:02:03;;;;;;;0.73;0.47;;;12.00;99.90;;;;;;4956453;28;20050;-89
2024/02/04 00:04:32;;;;;;;0.40;0.40;;;12.00;99.90;;;;;;4971876;28;20054;-88
2024/02/04 00:06:59;;;;;;;0.95;0.73;;;12.00;99.90;;;;;;4955837;28;20280;-88
2024/02/04 00:09:28;;;;;;;0.93;0.43;;;12.00;99.90;;;;;;4920977;28;20318;-87
2024/02/04 00:11:55;;;;;;;0.40;0.40;;;12.00;99.90;;;;;;4937259;28;20094;-86
2024/02/04 00:14:22;;;;;;;0.40;0.38;;;12.00;99.90;;;;;;4918706;28;20070;-86
2024/02/04 00:16:49;;;;;;;0.50;0.30;;;12.00;40.80;;;;;;4950222;28;20051;-86
2024/02/04 00:19:17;;;;;;;0.43;0.40;;;12.00;1.00;;;;;;4970307;28;20073;-85
2024/02/04 00:21:44;;;;;;;0.30;0.30;;;12.00;8.30;;;;;;4959596;28;20081;-86
2024/02/04 00:24:11;;;;;;;0.28;0.28;;;12.00;1.00;;;;;;4979169;28;20105;-84
2024/02/04 00:26:38;;;;;;;0.52;0.35;;;12.00;1.00;;;;;;4975520;28;20050;-88
2024/02/04 00:29:05;;;;;;;0.40;0.32;;;12.00;1.00;;;;;;4977081;28;20418;-90
2024/02/04 00:31:32;;;;;;;0.50;0.30;;;12.00;1.00;;;;;;4976888;28;20176;-89
2024/02/04 00:34:00;;;;;;;0.93;0.50;;;12.00;1.00;;;;;;4975984;28;20050;-88
2024/02/04 00:36:27;;;;;;;0.22;0.22;;;12.00;1.00;;;;;;4976079;28;20064;-89
2024/02/04 00:38:54;;;;;;;0.30;0.28;;;12.00;1.00;;;;;;4975548;28;20470;-86
2024/02/04 00:41:21;;;;;;;0.30;0.30;;;12.00;1.00;;;;;;4960911;28;20149;-89
2024/02/04 00:43:49;;;;;;;0.47;0.32;;;12.00;1.00;;;;;;4977307;28;20054;-87
2024/02/04 00:46:16;;;;;;;0.30;0.30;;;12.00;99.90;;;;;;4966762;28;20124;-89
2024/02/04 00:48:43;;;;;;;0.20;0.20;;;12.00;99.90;;;;;;4941387;28;20137;-84
2024/02/04 00:51:10;;;;;;;0.22;0.22;;;12.00;99.90;;;;;;4924429;28;20098;-87
2024/02/04 00:53:37;;;;;;;0.30;0.30;;;12.00;99.90;;;;;;4939709;28;20138;-86
2024/02/04 00:56:04;;;;;;;0.73;0.40;;;12.00;99.90;;;;;;4928824;28;20198;-87
2024/02/04 00:58:31;;;;;;;0.30;0.30;;;12.00;99.90;;;;;;4956000;28;20086;-86
2024/02/04 01:00:58;;;;;;;0.20;0.20;;;12.10;99.90;;;;;;4971066;28;20491;-86
2024/02/04 01:03:26;;;;;;;0.40;0.40;;;12.10;99.90;;;;;;4971895;28;20063;-83
2024/02/04 01:05:55;;;;;;;0.40;0.40;;;12.10;95.40;;;;;;4970954;28;20095;-84
2024/02/04 01:08:22;;;;;;;0.22;0.22;;;12.10;26.00;;;;;;4922624;28;20135;-86
2024/02/04 01:10:51;;;;;;;0.43;0.43;;;12.10;33.60;;;;;;4927810;28;20090;-86
2024/02/04 01:13:17;;;;;;;0.40;0.40;;;12.10;1.00;;;;;;4929967;28;20058;-85
2024/02/04 01:15:45;;;;;;;0.50;0.50;;;12.10;1.00;;;;;;4938634;28;20062;-87
2024/02/04 01:18:12;;;;;;;0.40;0.40;;;12.10;1.00;;;;;;4939458;28;20979;-87
2024/02/04 01:20:39;;;;;;;0.40;0.40;;;12.10;17.90;;;;;;4925011;28;20074;-87
2024/02/04 01:23:06;;;;;;;0.50;0.40;;;12.10;26.80;;;;;;4939679;28;20057;-86
2024/02/04 01:25:32;;;;;;;0.60;0.50;;;12.00;57.80;;;;;;4956458;28;20062;-87
2024/02/04 01:27:59;;;;;;;0.30;0.30;;;12.00;99.90;;;;;;4941002;28;20499;-85
2024/02/04 01:30:30;;;;;;;0.25;0.25;;;12.00;99.90;;;;;;4940362;28;20278;-88
2024/02/04 01:32:57;;;;;;;0.32;0.30;;;12.00;99.90;;;;;;4939453;28;20055;-86
2024/02/04 01:35:24;;;;;;;0.40;0.40;;;12.00;99.90;;;;;;4939061;28;20065;-86
2024/02/04 01:37:53;;;;;;;0.57;0.50;;;12.00;99.90;;;;;;4954534;28;20089;-87
2024/02/04 01:40:20;;;;;;;0.50;0.40;;;12.00;99.90;;;;;;4955438;28;20059;-88
2024/02/04 01:42:47;;;;;;;0.30;0.30;;;12.00;99.90;;;;;;4956303;28;20065;-87
2024/02/04 01:45:15;;;;;;;0.30;0.30;;;12.00;99.90;;;;;;4957005;28;20066;-85
2024/02/04 01:47:42;;;;;;;0.47;0.30;;;12.00;99.90;;;;;;4975724;28;20057;-87
2024/02/04 01:50:10;;;;;;;0.57;0.47;;;12.00;99.90;;;;;;4975525;28;20443;-87
2024/02/04 01:52:37;;;;;;;0.47;0.47;;;12.00;99.90;;;;;;4975687;28;20050;-87
2024/02/04 01:55:05;;;;;;;0.75;0.43;;;12.00;99.90;;;;;;4974907;28;20276;-87
2024/02/04 01:57:34;;;;;;;0.40;0.40;;;12.00;99.90;;;;;;4975877;28;20145;-87
2024/02/04 02:00:04;;;;;;;0.30;0.30;;;12.00;99.90;;;;;;4981151;28;20054;-85
2024/02/04 02:02:32;;;;;;;0.73;0.40;;;12.00;99.90;;;;;;4981727;28;20056;-88
2024/02/04 02:04:58;;;;;;;0.30;0.30;;;12.00;99.90;;;;;;4975279;28;20065;-89
2024/02/04 02:07:27;;;;;;;0.50;0.50;;;12.00;99.90;;;;;;4957406;28;20523;-88
2024/02/04 02:09:54;;;;;;;0.73;0.60;;;12.00;70.70;;;;;;4940477;28;20059;-88
2024/02/04 02:12:26;;;;;;;0.45;0.40;;;12.00;36.50;;;;;;4940821;28;20173;-85
2024/02/04 02:15:14;;;;;;;0.45;0.45;;;12.00;40.40;;;;;;4938603;28;20547;-87
2024/02/04 02:17:49;;;;;;;0.30;0.30;;;12.00;77.10;;;;;;4940995;28;20055;-87
2024/02/04 02:20:23;;;;;;;0.47;0.40;;;12.00;99.90;;;;;;4955905;28;20054;-83
2024/02/04 02:23:01;;;;;;;0.40;0.40;;;12.00;98.70;;;;;;4950215;28;20051;-83
2024/02/04 02:25:28;;;;;;;0.35;0.30;;;12.00;91.30;;;;;;4951707;28;20055;-84
2024/02/04 02:27:55;;;;;;;0.50;0.50;;;11.90;99.90;;;;;;4970111;28;20054;-83
2024/02/04 02:30:25;;;;;;;0.40;0.40;;;11.90;99.90;;;;;;4970815;28;20054;-87
2024/02/04 02:32:52;;;;;;;0.45;0.45;;;11.90;99.90;;;;;;4960837;28;20124;-87
2024/02/04 02:35:19;;;;;;;0.20;0.20;;;11.90;99.90;;;;;;4946121;28;20058;-86
2024/02/04 02:37:54;;;;;;;0.45;0.45;;;11.90;99.90;;;;;;4940507;28;20106;-85
2024/02/04 02:40:30;;;;;;;0.40;0.40;;;11.90;99.90;;;;;;4970994;28;20101;-86
2024/02/04 02:42:57;;;;;;;0.98;0.60;;;11.90;99.90;;;;;;4953665;28;20085;-87
2024/02/04 02:45:24;;;;;;;0.40;0.40;;;11.90;99.90;;;;;;4972934;28;20090;-88
2024/02/04 02:47:52;;;;;;;0.50;0.50;;;11.90;99.90;;;;;;4972904;28;20046;-87
2024/02/04 02:50:19;;;;;;;0.30;0.30;;;11.90;99.90;;;;;;4971819;28;20073;-84
2024/02/04 02:52:46;;;;;;;0.40;0.40;;;11.90;99.90;;;;;;4970589;28;20497;-85
2024/02/04 02:55:16;;;;;;;0.20;0.20;;;11.80;99.90;;;;;;4972428;28;20086;-86
2024/02/04 02:57:43;;;;;;;0.38;0.38;;;11.80;99.90;;;;;;4953915;28;20055;-86
2024/02/04 03:00:11;;;;;;;0.40;0.40;;;11.80;99.90;;;;;;4936327;28;20051;-89
2024/02/04 03:02:38;;;;;;;0.30;0.30;;;11.80;1.00;;;;;;4920731;28;20191;-87
2024/02/04 03:05:05;;;;;;;0.65;0.43;;;11.80;1.00;;;;;;4920856;28;20117;-86
2024/02/04 03:07:32;;;;;;;0.40;0.40;;;11.70;1.00;;;;;;4936402;28;20415;-87
2024/02/04 03:09:59;;;;;;;0.45;0.30;;;11.70;1.00;;;;;;4935442;28;20487;-86
2024/02/04 03:12:26;;;;;;;0.32;0.32;;;11.70;1.00;;;;;;4920380;28;20109;-87
2024/02/04 03:14:53;;;;;;;0.22;0.22;;;11.70;1.00;;;;;;4920541;28;20105;-87
2024/02/04 03:17:21;;;;;;;0.40;0.40;;;11.70;1.00;;;;;;4951281;28;20185;-85
2024/02/04 03:19:49;;;;;;;0.25;0.20;;;11.70;99.90;;;;;;4955927;28;20145;-88
2024/02/04 03:22:16;;;;;;;0.35;0.35;;;11.70;99.90;;;;;;4953555;28;20082;-86
2024/02/04 03:24:42;;;;;;;0.40;0.40;;;11.70;99.90;;;;;;4919944;28;20154;-85
2024/02/04 03:27:09;;;;;;;0.30;0.30;;;11.70;99.90;;;;;;4934723;28;20642;-88
2024/02/04 03:29:36;;;;;;;0.30;0.30;;;11.60;99.90;;;;;;4971505;28;20058;-87
2024/02/04 03:32:05;;;;;;;0.65;0.40;;;11.60;99.90;;;;;;4970709;28;20287;-86
2024/02/04 03:34:31;;;;;;;0.30;0.30;;;11.70;99.90;;;;;;4951638;28;20570;-87
2024/02/04 03:36:59;;;;;;;0.50;0.50;;;11.70;99.90;;;;;;4956880;28;20089;-84
2024/02/04 03:39:26;;;;;;;0.30;0.30;;;11.70;99.90;;;;;;4978044;28;20070;-85
2024/02/04 03:41:53;;;;;;;0.30;0.30;;;11.60;99.90;;;;;;4974397;28;20145;-85
2024/02/04 03:44:20;;;;;;;0.40;0.40;;;11.70;99.90;;;;;;4942063;28;20058;-89
2024/02/04 03:46:48;;;;;;;0.30;0.30;;;11.60;99.90;;;;;;4973271;28;20050;-86
2024/02/04 03:49:16;;;;;;;0.32;0.30;;;11.60;99.90;;;;;;4973089;28;20050;-87
2024/02/04 03:51:43;;;;;;;0.40;0.40;;;11.60;99.90;;;;;;4972446;28;20060;-86
2024/02/04 03:54:10;;;;;;;0.40;0.38;;;11.60;99.90;;;;;;4971107;28;20578;-89
2024/02/04 03:56:37;;;;;;;0.30;0.30;;;11.50;99.90;;;;;;4973100;28;20464;-87
2024/02/04 03:59:04;;;;;;;0.65;0.40;;;11.60;99.90;;;;;;4974061;28;20054;-86
2024/02/04 04:01:31;;;;;;;0.65;0.40;;;11.60;99.90;;;;;;4974534;28;20073;-89
2024/02/04 04:03:59;;;;;;;0.45;0.45;;;11.60;99.90;;;;;;4974739;28;20086;-86
2024/02/04 04:06:26;;;;;;;1.00;0.40;;;11.50;99.90;;;;;;4975709;28;20565;-87
2024/02/04 04:08:54;;;;;;;1.33;0.40;;;11.50;99.90;;;;;;4975292;28;20058;-88
2024/02/04 04:11:21;;;;;;;0.20;0.20;;;11.50;99.90;;;;;;4977185;28;20058;-85
2024/02/04 04:13:48;;;;;;;0.35;0.30;;;11.60;99.90;;;;;;4975701;28;20050;-87
2024/02/04 04:16:15;;;;;;;0.75;0.50;;;11.60;99.90;;;;;;4956471;28;20578;-88
2024/02/04 04:18:42;;;;;;;0.30;0.30;;;11.60;99.90;;;;;;4955452;28;20051;-89
2024/02/04 04:21:09;;;;;;;0.32;0.32;;;11.60;99.90;;;;;;4955584;28;20051;-88
2024/02/04 04:23:37;;;;;;;0.30;0.30;;;11.70;99.90;;;;;;4955042;28;20133;-88
2024/02/04 04:26:05;;;;;;;0.40;0.40;;;11.60;99.90;;;;;;4956226;28;20553;-88
2024/02/04 04:28:32;;;;;;;0.30;0.30;;;11.70;99.90;;;;;;4956444;28;20082;-88
2024/02/04 04:30:59;;;;;;;0.32;0.30;;;11.70;62.40;;;;;;4956323;28;20050;-89
2024/02/04 04:33:27;;;;;;;0.20;0.20;;;11.70;1.00;;;;;;4956115;28;20065;-88
2024/02/04 04:35:55;;;;;;;0.30;0.30;;;11.80;1.00;;;;;;4959590;28;20532;-87
2024/02/04 04:38:22;;;;;;;0.30;0.30;;;11.80;1.00;;;;;;4974947;28;20058;-88
2024/02/04 04:40:49;;;;;;;0.20;0.20;;;11.80;1.00;;;;;;4976397;28;20065;-89
2024/02/04 04:43:17;;;;;;;0.30;0.30;;;11.80;1.00;;;;;;4974119;28;20390;-88
2024/02/04 04:45:44;;;;;;;0.77;0.30;;;11.80;1.00;;;;;;4973835;28;20050;-88
2024/02/04 04:48:11;;;;;;;0.45;0.20;;;11.80;1.00;;;;;;4973820;28;20043;-86
2024/02/04 04:50:39;;;;;;;0.30;0.30;;;11.80;61.30;;;;;;4968034;28;20046;-85
2024/02/04 04:53:07;;;;;;;0.28;0.22;;;11.80;60.30;;;;;;4922378;28;20391;-87
2024/02/04 04:55:34;;;;;;;0.30;0.30;;;11.70;82.60;;;;;;4940114;28;20051;-88
2024/02/04 04:58:01;;;;;;;0.30;0.30;;;11.80;99.90;;;;;;4974651;28;20795;-87
2024/02/04 05:00:29;;;;;;;0.30;0.30;;;11.70;99.90;;;;;;4974602;28;20054;-88
2024/02/04 05:02:56;;;;;;;0.30;0.20;;;11.70;99.90;;;;;;4974255;28;20046;-89
2024/02/04 05:05:23;;;;;;;0.22;0.22;;;11.70;99.90;;;;;;4975053;28;20050;-87
2024/02/04 05:07:51;;;;;;;0.20;0.20;;;11.70;99.90;;;;;;4977388;28;20165;-87
2024/02/04 05:10:18;;;;;;;0.20;0.20;;;11.70;99.90;;;;;;4979149;28;20486;-85
2024/02/04 05:12:46;;;;;;;0.30;0.30;;;11.80;51.30;;;;;;4978602;28;20142;-87
2024/02/04 05:15:13;;;;;;;0.20;0.20;;;11.70;9.90;;;;;;4936527;28;20059;-87
2024/02/04 05:17:40;;;;;;;0.30;0.30;;;11.80;1.00;;;;;;4928040;28;20117;-88
2024/02/04 05:20:07;;;;;;;0.20;0.20;;;11.80;1.00;;;;;;4927534;28;20070;-87
2024/02/04 05:22:34;;;;;;;0.10;0.10;;;11.80;1.00;;;;;;4926910;28;20047;-88
2024/02/04 05:25:01;;;;;;;0.22;0.22;;;11.80;1.00;;;;;;4926854;28;20149;-86
2024/02/04 05:27:29;;;;;;;0.60;0.60;;;11.80;1.00;;;;;;4958544;28;20050;-89
2024/02/04 05:29:56;;;;;;;0.35;0.35;;;11.80;1.00;;;;;;4976927;28;20073;-85
2024/02/04 05:32:23;;;;;;;0.20;0.20;;;11.80;1.00;;;;;;4977469;28;20062;-88
2024/02/04 05:34:52;;;;;;;0.75;0.30;;;11.90;99.90;;;;;;4978190;28;20065;-89
2024/02/04 05:37:19;;;;;;;0.30;0.30;;;11.90;99.90;;;;;;4977667;28;20152;-87
2024/02/04 05:39:46;;;;;;;0.30;0.30;;;11.90;99.90;;;;;;4976378;28;20050;-86
2024/02/04 05:42:13;;;;;;;0.47;0.30;;;11.90;99.90;;;;;;4985731;28;20090;-88
2024/02/04 05:44:40;;;;;;;0.40;0.40;;;11.90;99.90;;;;;;4958429;28;20089;-88
2024/02/04 05:47:07;;;;;;;0.30;0.30;;;11.90;99.90;;;;;;4977728;28;20051;-89
2024/02/04 05:49:34;;;;;;;0.32;0.30;;;11.90;99.90;;;;;;4977539;28;20086;-87
2024/02/04 05:52:01;;;;;;;0.20;0.20;;;11.90;99.90;;;;;;4978081;28;20062;-88
2024/02/04 05:54:28;;;;;;;0.28;0.28;;;12.00;99.90;;;;;;4976230;28;20422;-88
2024/02/04 05:56:55;;;;;;;0.20;0.20;;;11.90;99.90;;;;;;4958335;28;20129;-88
2024/02/04 05:59:22;;;;;;;0.20;0.20;;;11.90;99.90;;;;;;4957861;28;20060;-89
2024/02/04 06:01:49;;;;;;;0.10;0.10;;;12.00;99.90;;;;;;4957547;28;20054;-86
2024/02/04 06:04:16;;;;;;;0.20;0.20;;;12.00;99.90;;;;;;4973057;28;20063;-87
2024/02/04 06:06:43;;;;;;;0.30;0.30;;;12.00;99.90;;;;;;4974791;28;20409;-86
2024/02/04 06:09:11;;;;;;;0.20;0.20;;;12.00;99.90;;;;;;4973237;28;20046;-88
2024/02/04 06:11:38;;;;;;;0.35;0.30;;;12.00;99.90;;;;;;4973342;28;20072;-88
2024/02/04 06:14:05;;;;;;;0.20;0.20;;;12.00;99.90;;;;;;4955301;28;20051;-86
2024/02/04 06:16:34;;;;;;;0.75;0.45;;;12.00;99.90;;;;;;4946771;28;20060;-89
2024/02/04 06:19:01;;;;;;;1.55;0.40;;;11.90;99.90;;;;;;4970765;28;20085;-85
2024/02/04 06:21:28;;;;;;;0.22;0.22;;;11.90;99.90;;;;;;4953044;28;20062;-85
2024/02/04 06:23:55;;;;;;;0.30;0.30;;;11.90;99.90;;;;;;4952251;28;20517;-85
2024/02/04 06:26:22;;;;;;;0.20;0.20;;;11.90;99.90;;;;;;4950679;28;20051;-85
2024/02/04 06:28:50;;;;;;;0.20;0.20;;;11.90;1.00;;;;;;4934548;28;20077;-85
2024/02/04 06:31:18;;;;;;;0.20;0.20;;;11.90;1.00;;;;;;4934562;28;20065;-85
2024/02/04 06:33:46;;;;;;;0.30;0.30;;;11.90;1.00;;;;;;4962293;28;20054;-89
2024/02/04 06:36:12;;;;;;;0.10;0.10;;;11.90;1.00;;;;;;4973817;28;20132;-89
2024/02/04 06:38:40;;;;;;;0.30;0.30;;;11.90;1.00;;;;;;4957880;28;20050;-88
2024/02/04 06:41:07;;;;;;;0.57;0.40;;;11.90;1.00;;;;;;4971258;28;20108;-87
2024/02/04 06:43:36;;;;;;;0.20;0.20;;;11.90;1.00;;;;;;4950301;28;20097;-89
2024/02/04 06:46:03;;;;;;;0.30;0.30;;;11.90;99.90;;;;;;4970666;28;20051;-88
2024/02/04 06:48:31;;;;;;;0.20;0.20;;;11.90;99.90;;;;;;4951550;28;20094;-85
2024/02/04 06:50:58;;;;;;;0.40;0.40;;;11.90;99.90;;;;;;4967882;28;20506;-85
2024/02/04 06:53:25;;;;;;;0.30;0.30;;;11.90;99.90;;;;;;4929365;28;20098;-85
2024/02/04 06:55:52;;;;;;;0.20;0.20;;;11.90;99.90;;;;;;4939187;28;20081;-88
2024/02/04 06:58:19;;;;;;;0.30;0.30;;;11.90;99.90;;;;;;4937765;28;20452;-87
2024/02/04 07:00:47;;;;;;;0.30;0.30;;;12.00;99.90;;;;;;4954283;28;20054;-88
2024/02/04 07:03:14;;;;;;;0.10;0.10;;;12.00;99.90;;;;;;4939049;28;20035;-88
2024/02/04 07:05:42;;;;;;;0.20;0.20;;;12.00;99.90;;;;;;4939963;28;20496;-88
2024/02/04 07:08:11;;;;;;;0.45;0.30;;;12.00;99.90;;;;;;4937277;28;20046;-87
2024/02/04 07:10:38;;;;;;;0.30;0.30;;;12.00;99.90;;;;;;4970341;28;20050;-86
2024/02/04 07:13:06;;;;;;;0.20;0.20;;;12.00;99.90;;;;;;4955151;28;20082;-88
2024/02/04 07:15:34;;;;;;;0.38;0.20;;;12.00;99.90;;;;;;4939995;28;20478;-87
2024/02/04 07:18:01;;;;;;;0.30;0.30;;;12.00;78.30;;;;;;4963682;28;20043;-88
2024/02/04 07:20:28;;;;;;;0.20;0.20;;;12.00;64.10;;;;;;4950584;28;20050;-86
2024/02/04 07:22:55;;;;;;;0.30;0.30;;;12.00;36.10;;;;;;4970180;28;20333;-87
2024/02/04 07:25:22;;;;;;;0.30;0.30;;;12.00;24.40;;;;;;4969977;28;20486;-87
2024/02/04 07:27:49;;;;;;;0.30;0.30;;;12.10;36.50;;;;;;4950224;28;20050;-86
2024/02/04 07:30:17;;;;;;;0.30;0.30;;;12.10;25.90;;;;;;4955156;28;20145;-87
2024/02/04 07:32:44;;;;;;;0.20;0.20;;;12.10;12.20;;;;;;4933318;28;20079;-86
2024/02/04 07:35:11;;;;;;;0.30;0.30;;;12.10;1.60;;;;;;4939068;28;20054;-85
2024/02/04 07:37:40;;;;;;;0.45;0.40;;;12.10;1.00;;;;;;4936943;28;20120;-88
2024/02/04 07:40:10;;;;;;;0.20;0.20;;;12.00;1.00;;;;;;4949894;28;20057;-88
2024/02/04 07:42:39;;;;;;;0.30;0.30;;;12.10;1.00;;;;;;4970674;28;20057;-88
2024/02/04 07:45:08;;;;;;;0.10;0.10;;;12.10;1.00;;;;;;4970757;28;20118;-88
2024/02/04 07:47:37;;;;;;;0.30;0.30;;;12.10;1.00;;;;;;4956453;28;20062;-88
2024/02/04 07:50:04;;;;;;;0.30;0.30;;;12.10;1.00;;;;;;4955647;28;20042;-89
2024/02/04 07:52:36;;;;;;;0.20;0.20;;;12.20;1.00;;;;;;4952231;28;20058;-87
2024/02/04 07:55:04;;;;;;;0.45;0.32;;;12.20;1.00;;;;;;4949173;28;20076;-88
2024/02/04 07:57:31;;;;;;;0.20;0.20;;;12.20;1.00;;;;;;4951726;28;20063;-88
2024/02/04 07:59:58;;;;;;;0.43;0.30;;;12.20;1.00;;;;;;4930268;28;20406;-87
2024/02/04 08:02:30;;;;;;;0.30;0.30;;;12.20;1.00;;;;;;4969919;28;20062;-87
2024/02/04 08:04:57;;;;;;;0.32;0.28;;;12.20;1.00;;;;;;4969622;28;20557;-88
2024/02/04 08:07:24;;;;;;;0.20;0.20;;;12.30;99.90;;;;;;4932760;28;20419;-88
2024/02/04 08:09:52;;;;;;;0.30;0.30;;;12.30;99.90;;;;;;4937805;28;20100;-88
2024/02/04 08:12:19;;;;;;;0.30;0.30;;;12.20;99.90;;;;;;4950765;28;20141;-88
2024/02/04 08:14:46;;;;;;;0.20;0.20;;;12.30;99.90;;;;;;4962509;28;20573;-87
2024/02/04 08:17:13;;;;;;;0.30;0.20;;;12.30;1.00;;;;;;4941885;28;20046;-87
2024/02/04 08:19:41;;;;;;;0.40;0.30;;;12.30;1.00;;;;;;4928308;28;20053;-88
2024/02/04 08:22:08;;;;;;;0.30;0.30;;;12.30;1.00;;;;;;4949297;28;20058;-87
2024/02/04 08:24:36;;;;;;;0.28;0.28;;;12.30;1.00;;;;;;4937182;28;20276;-86
2024/02/04 08:27:03;;;;;;;0.60;0.40;;;12.20;1.00;;;;;;4928408;28;20054;-88
2024/02/04 08:29:30;;;;;;;0.30;0.28;;;12.20;88.70;;;;;;4939842;28;20576;-85
2024/02/04 08:31:57;;;;;;;0.30;0.30;;;12.20;99.90;;;;;;4955527;28;20057;-88
2024/02/04 08:34:25;;;;;;;0.32;0.32;;;12.20;99.90;;;;;;4937433;28;20062;-87
2024/02/04 08:36:53;;;;;;;0.50;0.50;;;12.20;99.90;;;;;;4949215;28;20168;-87
2024/02/04 08:39:20;;;;;;;0.30;0.30;;;12.20;99.90;;;;;;4949369;28;20054;-86
2024/02/04 08:41:47;;;;;;;0.32;0.30;;;12.20;99.90;;;;;;4948061;28;20051;-87
2024/02/04 08:44:15;;;;;;;0.45;0.40;;;12.20;99.90;;;;;;4948067;28;20068;-86
2024/02/04 08:46:58;;;;;;;0.40;0.35;;;12.20;99.90;;;;;;4967068;28;20062;-86
2024/02/04 08:49:25;;;;;;;0.40;0.40;;;12.20;99.90;;;;;;4975686;28;20054;-86
2024/02/04 08:51:52;;;;;;;0.30;0.30;;;12.20;99.90;;;;;;4955814;28;20050;-90
2024/02/04 08:54:21;;;;;;;0.40;0.40;;;12.20;99.90;;;;;;4952309;28;20233;-87
2024/02/04 08:56:48;;;;;;;0.47;0.47;;;12.20;99.90;;;;;;4955069;28;20042;-86
2024/02/04 08:59:16;;;;;;;0.35;0.30;;;12.20;99.90;;;;;;4957155;28;20060;-86
2024/02/04 09:01:43;;;;;;;0.38;0.30;;;12.30;99.90;;;;;;4937564;28;20050;-89
2024/02/04 09:04:10;;;;;;;2.22;0.40;;;12.30;99.90;;;;;;4955670;28;20049;-90
2024/02/04 09:06:37;;;;;;;0.95;0.50;;;12.30;99.90;;;;;;4933691;28;20066;-87
2024/02/04 09:09:05;;;;;;;0.30;0.30;;;12.30;99.90;;;;;;4956494;28;20054;-89
2024/02/04 09:11:32;;;;;;;0.50;0.40;;;12.30;99.90;;;;;;4944357;28;20537;-88
2024/02/04 09:13:59;;;;;;;0.63;0.50;;;12.40;99.90;;;;;;4945482;28;20050;-87
2024/02/04 09:16:26;;;;;;;0.43;0.38;;;12.40;99.90;;;;;;4947986;28;20096;-87
2024/02/04 09:18:53;;;;;;;0.43;0.40;;;12.50;85.00;;;;;;4950706;28;20486;-87
2024/02/04 09:21:22;;;;;;;0.90;0.50;;;12.50;11.10;;;;;;4963266;28;20534;-87
2024/02/04 09:23:49;;;;;;;0.68;0.50;;;12.50;1.00;;;;;;4932734;28;20114;-87
2024/02/04 09:26:16;;;;;;;0.60;0.50;;;12.40;1.00;;;;;;4951797;28;20062;-87
2024/02/04 09:28:45;;;;;;;0.80;0.50;;;12.50;1.00;;;;;;4940604;28;20078;-88
2024/02/04 09:31:13;;;;;;;0.88;0.50;;;12.50;1.00;;;;;;4969179;28;20054;-87
2024/02/04 09:33:40;;;;;;;0.40;0.40;;;12.50;1.00;;;;;;4953863;28;20141;-88
2024/02/04 09:36:08;;;;;;;0.40;0.40;;;12.60;99.90;;;;;;4937417;28;20558;-87
2024/02/04 09:38:35;;;;;;;0.52;0.40;;;12.60;99.90;;;;;;4957526;28;20136;-89
2024/02/04 09:41:05;;;;;;;0.63;0.60;;;12.60;99.90;;;;;;4955503;28;20058;-86
2024/02/04 09:43:33;;;;;;;1.00;0.47;;;12.60;99.90;;;;;;4954091;28;20174;-87
2024/02/04 09:46:00;;;;;;;1.50;0.68;;;12.60;99.90;;;;;;4942720;28;20046;-87
2024/02/04 09:48:32;;;;;;;0.98;0.50;;;12.60;99.90;;;;;;4945001;28;20561;-86
2024/02/04 09:51:00;;;;;;;1.55;0.60;;;12.60;99.90;;;;;;4954903;28;20430;-87
2024/02/04 09:53:34;;;;;;;0.55;0.47;;;12.70;99.90;;;;;;4949403;28;20153;-86
2024/02/04 09:56:02;;;;;;;0.70;0.60;;;12.60;99.90;;;;;;4939469;28;20054;-85
2024/02/04 09:58:29;;;;;;;0.65;0.60;;;12.60;99.90;;;;;;4952710;28;20474;-86
2024/02/04 10:00:57;;;;;;;0.90;0.47;;;12.70;99.90;;;;;;4933745;28;20056;-86
2024/02/04 10:03:24;;;;;;;0.43;0.43;;;12.70;99.90;;;;;;4937418;28;20511;-86
2024/02/04 10:05:51;;;;;;;0.50;0.40;;;12.70;99.90;;;;;;4970617;28;20050;-87
2024/02/04 10:08:19;;;;;;;0.55;0.47;;;12.80;99.90;;;;;;4955129;28;20062;-86
2024/02/04 10:10:48;;;;;;;0.50;0.50;;;12.80;99.90;;;;;;4947234;28;20443;-87
2024/02/04 10:13:15;;;;;;;0.50;0.40;;;12.80;99.90;;;;;;4934802;28;20417;-86
2024/02/04 10:15:43;;;;;;;1.25;0.50;;;13.00;99.90;;;;;;4939044;28;20137;-86
2024/02/04 10:18:10;;;;;;;0.47;0.47;;;13.00;99.90;;;;;;4946255;28;20055;-87
2024/02/04 10:20:37;;;;;;;0.40;0.40;;;13.00;99.90;;;;;;4940223;28;20086;-85
2024/02/04 10:23:04;;;;;;;0.47;0.30;;;13.00;99.90;;;;;;4937846;28;20054;-86
2024/02/04 10:25:32;;;;;;;1.52;0.40;;;13.00;99.90;;;;;;4970479;28;20108;-86
2024/02/04 10:27:59;;;;;;;0.90;0.40;;;13.10;99.90;;;;;;4965126;28;20046;-85
2024/02/04 10:30:26;;;;;;;0.32;0.30;;;13.10;99.90;;;;;;4952821;28;20054;-84
2024/02/04 10:32:54;;;;;;;0.90;0.55;;;13.20;99.90;;;;;;4948263;28;20371;-84
2024/02/04 10:35:23;;;;;;;1.60;0.57;;;13.20;99.90;;;;;;4963099;28;20066;-85
2024/02/04 10:37:50;;;;;;;0.73;0.73;;;13.20;99.90;;;;;;4944736;28;20452;-83
2024/02/04 10:40:18;;;;;;;1.02;0.50;;;13.30;99.90;;;;;;4960728;28;20078;-85
2024/02/04 10:42:47;;;;;;;0.55;0.50;;;13.30;99.90;;;;;;4929820;28;20517;-84
2024/02/04 10:45:15;;;;;;;0.47;0.30;;;13.30;99.90;;;;;;4959474;28;20043;-86
2024/02/04 10:47:42;;;;;;;0.50;0.50;;;13.40;99.90;;;;;;4934923;28;20078;-85
2024/02/04 10:50:09;;;;;;;0.68;0.43;;;13.50;99.90;;;;;;4946219;28;20149;-86
2024/02/04 10:52:39;;;;;;;0.52;0.40;;;13.70;99.90;;;;;;4962742;28;20058;-85
2024/02/04 10:55:08;;;;;;;0.40;0.40;;;13.70;99.90;;;;;;4929613;28;20152;-86
2024/02/04 10:57:36;;;;;;;0.40;0.40;;;13.70;99.90;;;;;;4946554;28;20483;-86
2024/02/04 11:00:11;;;;;;;0.43;0.43;;;13.80;99.90;;;;;;4946909;28;20059;-86
2024/02/04 11:02:39;;;;;;;0.43;0.40;;;13.80;99.90;;;;;;4944285;28;20417;-86
2024/02/04 11:05:08;;;;;;;1.35;0.50;;;13.80;99.90;;;;;;4939715;28;20054;-87
2024/02/04 11:07:35;;;;;;;1.25;0.70;;;13.80;99.90;;;;;;4966474;28;21425;-86
2024/02/04 11:10:04;;;;;;;0.52;0.40;;;13.80;99.90;;;;;;4946766;28;20051;-85
2024/02/04 11:12:32;;;;;;;1.15;0.50;;;13.90;99.90;;;;;;4960228;28;20062;-87
2024/02/04 11:15:01;;;;;;;0.82;0.60;;;13.90;99.90;;;;;;4941866;28;20670;-87
2024/02/04 11:17:57;;;;;;;0.40;0.40;;;14.00;99.90;;;;;;4949022;28;20058;-86
2024/02/04 11:20:31;;;;;;;0.63;0.60;;;13.90;95.80;;;;;;4940238;28;20051;-87
2024/02/04 11:23:03;;;;;;;0.60;0.40;;;14.00;95.30;;;;;;4978354;28;20517;-86
2024/02/04 11:25:43;;;;;;;1.10;0.63;;;14.00;89.10;;;;;;4979351;28;20132;-85
2024/02/04 11:28:11;;;;;;;0.50;0.50;;;14.00;89.30;;;;;;4964300;28;20087;-87
2024/02/04 11:30:39;;;;;;;0.77;0.60;;;14.10;81.20;;;;;;4941034;28;20468;-86
2024/02/04 11:33:06;;;;;;;1.13;0.88;;;14.00;72.30;;;;;;4933308;28;20054;-86
2024/02/04 11:35:34;;;;;;;1.05;0.80;;;14.10;70.40;;;;;;4952550;28;20085;-85
2024/02/04 11:38:05;;;;;;;1.52;0.82;;;14.10;74.10;;;;;;4970063;28;20157;-87
2024/02/04 11:40:39;;;;;;;0.77;0.70;;;14.20;77.10;;;;;;4951917;28;20097;-86
2024/02/04 11:43:07;;;;;;;0.63;0.50;;;14.20;76.60;;;;;;4936397;28;20086;-85
2024/02/04 11:45:40;;;;;;;1.27;0.70;;;14.30;70.40;;;;;;4948376;28;20506;-86
2024/02/04 11:48:07;;;;;;;;;;;14.30;71.60;;;;;;4959131;28;20088;-87
2024/02/04 11:50:35;;;;;;;0.40;0.40;;;14.40;74.80;;;;;;4974688;28;19926;-87
2024/02/04 11:53:07;;;;;;;1.15;0.50;;;14.40;69.40;;;;;;4938770;28;20500;-87
2024/02/04 11:55:35;;;;;;;0.95;0.50;;;14.50;65.20;;;;;;4967856;28;20097;-87
2024/02/04 11:58:07;;;;;;;;;;;14.50;61.10;;;;;;4939371;28;20182;-87
2024/02/04 12:00:35;;;;;;;0.73;0.60;;;14.50;49.60;;;;;;4970103;28;20406;-85
2024/02/04 12:03:02;;;;;;;0.40;0.35;;;14.70;51.40;;;;;;4968470;28;20073;-87
2024/02/04 12:05:36;;;;;;;1.92;1.08;;;14.70;56.20;;;;;;4968505;28;20054;-85
2024/02/04 12:08:07;;;;;;;4.60;3.33;;;14.70;34.50;;;;;;4936688;28;20314;-87
2024/02/04 12:10:35;;;;;;;3.38;1.88;;;14.60;43.50;;;;;;4963882;28;20077;-85
2024/02/04 12:13:04;;;;;;;1.95;1.30;;;14.60;42.70;;;;;;4960529;28;20178;-87
2024/02/04 12:15:31;;;;;;;1.52;1.00;;;14.50;39.40;;;;;;4937334;28;20352;-87
2024/02/04 12:18:11;;;;;;;1.35;0.80;;;14.50;39.90;;;;;;4965340;28;20118;-87
2024/02/04 12:20:39;;;;;;;0.85;0.73;;;14.50;40.00;;;;;;4968752;28;20357;-91
2024/02/04 12:23:07;;;;;;;0.80;0.50;;;14.50;33.00;;;;;;4950226;28;20054;-86
2024/02/04 12:25:34;;;;;;;2.95;1.05;;;14.40;30.50;;;;;;4924099;28;20047;-86
2024/02/04 12:28:04;;;;;;;2.75;0.60;;;14.40;32.30;;;;;;4945869;28;20055;-86
2024/02/04 12:30:32;;;;;;;1.38;0.50;;;14.30;44.40;;;;;;4942098;28;20051;-86
2024/02/04 12:33:01;;;;;;;0.50;0.50;;;14.30;39.00;;;;;;4952163;28;20054;-86
2024/02/04 12:35:28;;;;;;;3.15;1.10;;;14.20;39.10;;;;;;4950915;28;20477;-87
2024/02/04 12:37:57;;;;;;;4.85;3.03;;;14.20;35.20;;;;;;4940340;28;20086;-84
2024/02/04 12:40:24;;;;;;;2.85;2.00;;;14.20;37.20;;;;;;4934704;28;20061;-86
2024/02/04 12:42:58;;;;;;;1.65;1.27;;;14.10;39.10;;;;;;4950761;28;20058;-85
2024/02/04 12:45:31;;;;;;;2.47;1.00;;;14.20;46.20;;;;;;4959361;28;20057;-86
2024/02/04 12:47:58;;;;;;;1.05;0.70;;;14.20;43.90;;;;;;4946368;28;20617;-86
2024/02/04 12:50:27;;;;;;;0.90;0.75;;;14.30;43.70;;;;;;4951036;28;20545;-87
2024/02/04 12:53:11;;;;;;;0.40;0.40;;;14.30;42.10;;;;;;4944484;28;20069;-85
2024/02/04 12:55:38;;;;;;;1.35;0.65;;;14.30;44.50;;;;;;4951448;28;20085;-87